Time;durP1;ratioP1;P1;durP2;ratioP2;P2;SDS_P1;SDS_P2;PMS_P1;PMS_P2;Temp;Humidity;BMP_temperature;BMP_pressure;BME280_temperature;BME280_humidity;BME280_pressure;Samples;Min_cycle;Max_cycle;Signal;HPM_P1;HPM_P2
2023/06/22 00:00:51;;;;;;;11.53;6.63;;;;;;;-143.84;63.11;45035.75;5090036;28;20444;-55
2023/06/22 00:03:20;;;;;;;10.23;6.73;;;;;;;-143.84;63.28;45043.34;5089889;28;20437;-55
2023/06/22 00:05:47;;;;;;;7.07;6.37;;;;;;;-143.84;63.55;45052.88;5089490;28;20441;-55
2023/06/22 00:08:15;;;;;;;7.20;6.13;;;;;;;-143.84;62.94;45066.22;5089400;28;20892;-55
2023/06/22 00:10:42;;;;;;;7.83;6.63;;;;;;;-143.84;63.19;45058.59;5089928;28;20479;-55
2023/06/22 00:13:11;;;;;;;7.50;6.30;;;;;;;-143.84;63.14;45064.31;5089834;28;20437;-55
2023/06/22 00:15:39;;;;;;;10.23;6.97;;;;;;;-143.84;63.20;45060.50;5089678;28;20534;-55
2023/06/22 00:18:07;;;;;;;7.37;6.63;;;;;;;-143.84;63.21;45010.97;5089234;28;20476;-55
2023/06/22 00:20:36;;;;;;;7.40;6.70;;;;;;;-143.84;62.83;45071.91;5089257;28;20446;-55
2023/06/22 00:23:07;;;;;;;13.40;7.37;;;;;;;-143.84;62.64;45050.97;5089367;28;20817;-55
2023/06/22 00:25:34;;;;;;;13.30;6.77;;;;;;;-143.84;62.66;45056.69;5089343;28;20453;-55
2023/06/22 00:28:02;;;;;;;8.20;7.40;;;;;;;-143.84;62.42;45045.25;5089446;28;20994;-55
2023/06/22 00:30:31;;;;;;;7.60;6.90;;;;;;;-143.84;61.96;45047.16;5089130;28;20447;-55
2023/06/22 00:32:58;;;;;;;8.40;6.87;;;;;;;-143.84;62.20;45039.53;5089257;28;20445;-55
2023/06/22 00:35:29;;;;;;;6.90;6.30;;;;;;;-143.84;62.46;45049.06;5089370;28;20993;-55
2023/06/22 00:38:00;;;;;;;7.03;6.37;;;;;;;-143.84;62.46;45052.88;5088844;28;20444;-55
2023/06/22 00:40:28;;;;;;;6.90;6.30;;;;;;;-143.84;62.95;45031.94;5089252;28;20545;-55
2023/06/22 00:42:55;;;;;;;7.07;6.37;;;;;;;-143.84;63.17;45039.53;5089152;28;20510;-55
2023/06/22 00:45:24;;;;;;;8.23;6.90;;;;;;;-143.84;63.51;45056.69;5089142;28;20480;-55
2023/06/22 00:47:53;;;;;;;10.53;7.30;;;;;;;-143.84;63.17;45058.59;5089213;28;20448;-55
2023/06/22 00:50:22;;;;;;;10.10;6.77;;;;;;;-143.84;62.92;45035.75;5089335;28;20440;-55
2023/06/22 00:52:53;;;;;;;18.27;8.00;;;;;;;-143.84;63.25;45043.34;5089032;28;20450;-55
2023/06/22 00:55:22;;;;;;;8.07;7.37;;;;;;;-143.84;63.11;45075.72;5088950;28;20432;-55
2023/06/22 00:57:49;;;;;;;7.53;6.93;;;;;;;-143.84;62.98;45037.66;5088901;28;20442;-55
2023/06/22 01:00:20;;;;;;;7.47;6.73;;;;;;;-143.84;62.86;45052.88;5088846;28;20449;-55
2023/06/22 01:02:51;;;;;;;8.57;7.67;;;;;;;-143.84;63.05;45049.06;5088724;28;20451;-55
2023/06/22 01:05:21;;;;;;;9.80;7.30;;;;;;;-143.84;62.87;45071.91;5089036;28;20533;-55
2023/06/22 01:08:00;;;;;;;7.40;6.80;;;;;;;-143.84;63.20;45050.97;5088753;28;20934;-55
2023/06/22 01:10:36;;;;;;;7.63;5.90;;;;;;;-143.84;63.06;45052.88;5088811;28;20449;-55
2023/06/22 01:13:17;;;;;;;7.47;6.80;;;;;;;-143.84;63.21;45039.53;5088794;28;20444;-55
2023/06/22 01:15:49;;;;;;;7.53;6.63;;;;;;;-143.84;63.60;45062.41;5088857;28;20456;-55
2023/06/22 01:18:20;;;;;;;14.57;7.03;;;;;;;-143.84;63.46;45052.88;5088611;28;20935;-55
2023/06/22 01:20:49;;;;;;;11.60;7.27;;;;;;;-143.84;63.61;45058.59;5088689;28;20820;-55
2023/06/22 01:23:28;;;;;;;12.90;7.83;;;;;;;-143.84;64.11;45035.75;5088887;28;20448;-55
2023/06/22 01:26:04;;;;;;;7.50;6.80;;;;;;;-143.84;64.08;45039.53;5088644;28;20464;-55
2023/06/22 01:28:46;;;;;;;10.33;7.60;;;;;;;-143.84;63.84;45037.66;5088902;28;20476;-55
2023/06/22 01:31:16;;;;;;;7.40;6.70;;;;;;;-143.84;63.80;45062.41;5089142;28;20494;-55
2023/06/22 01:33:45;;;;;;;12.90;7.60;;;;;;;-143.84;64.05;45041.44;5092663;28;20444;-55
2023/06/22 01:36:14;;;;;;;10.67;8.03;;;;;;;-143.84;64.17;45071.91;5092526;28;20440;-55
2023/06/22 01:38:43;;;;;;;13.97;7.30;;;;;;;-143.84;64.40;45068.13;5092501;28;20429;-55
2023/06/22 01:41:10;;;;;;;9.87;7.10;;;;;;;-143.84;64.33;45033.84;5092354;28;20490;-55
2023/06/22 01:43:38;;;;;;;7.97;7.17;;;;;;;-143.84;64.82;45054.78;5092454;28;20448;-55
2023/06/22 01:46:06;;;;;;;11.63;8.10;;;;;;;-143.84;65.05;45062.41;5092300;28;20439;-54
2023/06/22 01:48:34;;;;;;;10.77;7.50;;;;;;;-143.84;65.13;45064.31;5092507;28;21167;-55
2023/06/22 01:51:01;;;;;;;16.37;7.03;;;;;;;-143.84;65.36;45054.78;5092108;28;20475;-55
2023/06/22 01:53:28;;;;;;;12.60;8.23;;;;;;;-143.84;65.45;45062.41;5092188;28;20440;-55
2023/06/22 01:55:57;;;;;;;11.33;7.67;;;;;;;-143.84;65.29;45041.44;5092358;28;20436;-55
2023/06/22 01:58:27;;;;;;;9.27;8.43;;;;;;;-143.84;65.37;45039.53;5092240;28;20486;-55
2023/06/22 02:00:59;;;;;;;15.20;9.50;;;;;;;-143.84;65.63;45033.84;5092182;28;20498;-55
2023/06/22 02:03:33;;;;;;;14.13;7.83;;;;;;;-143.84;66.41;45070.00;5092128;28;20437;-55
2023/06/22 02:06:05;;;;;;;9.03;8.13;;;;;;;-143.84;66.65;45047.16;5091971;28;20468;-55
2023/06/22 02:08:39;;;;;;;9.20;8.30;;;;;;;-143.84;67.32;45031.94;5091834;28;20483;-55
2023/06/22 02:11:07;;;;;;;13.43;7.20;;;;;;;-143.84;67.67;45045.25;5091658;28;20440;-55
2023/06/22 02:13:36;;;;;;;15.93;8.20;;;;;;;-143.84;67.38;45030.03;5091607;28;20452;-55
2023/06/22 02:16:03;;;;;;;9.50;7.93;;;;;;;-143.84;67.61;45050.97;5091945;28;20452;-55
2023/06/22 02:18:32;;;;;;;11.67;7.80;;;;;;;-143.84;68.09;45054.78;5091552;28;20483;-55
2023/06/22 02:20:59;;;;;;;11.97;8.80;;;;;;;-143.84;68.06;45068.13;5091756;28;20432;-55
2023/06/22 02:23:26;;;;;;;11.23;9.23;;;;;;;-143.84;68.24;45041.44;5091883;28;20463;-55
2023/06/22 02:25:54;;;;;;;11.43;8.30;;;;;;;-143.84;67.96;45056.69;5091767;28;20448;-55
2023/06/22 02:28:21;;;;;;;15.23;8.03;;;;;;;-143.84;67.92;45079.53;5091335;28;20449;-55
2023/06/22 02:30:48;;;;;;;11.93;9.00;;;;;;;-143.84;67.70;45068.13;5090793;28;20440;-55
2023/06/22 02:33:15;;;;;;;17.97;8.60;;;;;;;-143.84;67.41;45081.44;5090895;28;20432;-55
2023/06/22 02:35:45;;;;;;;9.47;7.87;;;;;;;-143.84;66.59;45064.31;5090808;28;20440;-55
2023/06/22 02:38:12;;;;;;;11.63;8.10;;;;;;;-143.84;67.16;45054.78;5090591;28;20449;-55
2023/06/22 02:40:39;;;;;;;11.00;9.50;;;;;;;-143.84;67.35;45064.31;5090960;28;20433;-55
2023/06/22 02:43:06;;;;;;;14.67;9.07;;;;;;;-143.84;67.64;45070.00;5089804;28;20436;-55
2023/06/22 02:45:33;;;;;;;15.90;8.27;;;;;;;-143.84;67.69;45066.22;5091440;28;20562;-55
2023/06/22 02:48:00;;;;;;;10.70;8.50;;;;;;;-143.84;67.15;45041.44;5091178;28;20433;-55
2023/06/22 02:50:28;;;;;;;12.00;8.90;;;;;;;-143.84;67.58;45073.81;5091100;28;20533;-55
2023/06/22 02:52:56;;;;;;;11.83;8.70;;;;;;;-143.84;66.93;45071.91;5091213;28;20498;-55
2023/06/22 02:55:23;;;;;;;9.93;8.53;;;;;;;-143.84;66.74;45041.44;5091095;28;20505;-55
2023/06/22 02:57:52;;;;;;;10.80;6.87;;;;;;;-143.84;66.32;45073.81;5090883;28;20445;-55
2023/06/22 03:00:21;;;;;;;14.20;7.80;;;;;;;-143.84;65.83;45075.72;5090973;28;20923;-55
2023/06/22 03:02:49;;;;;;;9.63;7.97;;;;;;;-143.84;65.63;45071.91;5090784;28;20460;-55
2023/06/22 03:05:17;;;;;;;9.63;7.97;;;;;;;-143.84;65.79;45081.44;5090825;28;20440;-55
2023/06/22 03:07:45;;;;;;;11.97;8.43;;;;;;;-143.84;65.99;45039.53;5090724;28;20440;-55
2023/06/22 03:10:15;;;;;;;9.23;7.67;;;;;;;-143.84;65.78;45066.22;5090496;28;21170;-55
2023/06/22 03:12:43;;;;;;;12.00;8.40;;;;;;;-143.84;65.54;45045.25;5090802;28;20793;-55
2023/06/22 03:15:12;;;;;;;9.93;8.40;;;;;;;-143.84;65.28;45049.06;5090702;28;20841;-55
2023/06/22 03:17:39;;;;;;;16.40;7.17;;;;;;;-143.84;64.66;45052.88;5090163;28;20476;-55
2023/06/22 03:20:10;;;;;;;9.90;8.90;;;;;;;-143.84;64.81;45077.63;5090414;28;20440;-55
2023/06/22 03:22:37;;;;;;;8.50;7.40;;;;;;;-143.84;64.77;45066.22;5090435;28;20432;-55
2023/06/22 03:25:09;;;;;;;7.83;7.10;;;;;;;-143.84;64.17;45085.25;5090555;28;20475;-55
2023/06/22 03:27:38;;;;;;;12.53;7.47;;;;;;;-143.84;63.68;45058.59;5090526;28;20445;-55
2023/06/22 03:30:06;;;;;;;17.70;7.17;;;;;;;-143.84;63.52;45047.16;5090286;28;20476;-55
2023/06/22 03:32:33;;;;;;;7.73;7.03;;;;;;;-143.84;63.44;45047.16;5090578;28;20438;-55
2023/06/22 03:35:00;;;;;;;12.80;7.03;;;;;;;-143.84;63.92;45056.69;5090534;28;20873;-55
2023/06/22 03:37:28;;;;;;;11.03;7.60;;;;;;;-143.84;63.77;45043.34;5090117;28;20437;-55
2023/06/22 03:39:55;;;;;;;10.10;7.43;;;;;;;-143.84;63.54;45033.84;5090000;28;20445;-55
2023/06/22 03:42:22;;;;;;;20.93;7.70;;;;;;;-143.84;62.56;45045.25;5090024;28;20489;-55
2023/06/22 03:44:51;;;;;;;7.70;7.20;;;;;;;-143.84;60.29;45035.75;5089716;28;20444;-55
2023/06/22 03:47:18;;;;;;;8.43;7.13;;;;;;;-143.84;57.62;45028.13;5090171;28;20442;-55
2023/06/22 03:49:46;;;;;;;11.80;7.47;;;;;;;-143.84;54.49;45039.53;5089828;28;20493;-55
2023/06/22 03:52:13;;;;;;;9.53;6.57;;;;;;;-143.84;53.06;44995.75;5089859;28;20500;-55
2023/06/22 03:54:40;;;;;;;10.13;6.33;;;;;;;-143.84;51.25;45007.19;5089332;28;20436;-55
2023/06/22 03:57:07;;;;;;;7.67;6.77;;;;;;;-143.84;50.90;45010.97;5089727;28;20497;-55
2023/06/22 03:59:34;;;;;;;11.53;6.87;;;;;;;-143.84;50.55;45003.38;5089432;28;20443;-55
2023/06/22 04:02:03;;;;;;;6.33;5.83;;;;;;;-143.84;50.16;44991.94;5089503;28;20439;-55
2023/06/22 04:04:30;;;;;;;7.17;6.33;;;;;;;-143.84;49.59;45033.84;5089506;28;20447;-55
2023/06/22 04:06:57;;;;;;;6.83;6.23;;;;;;;-143.84;50.01;45026.22;5089671;28;20781;-55
2023/06/22 04:09:25;;;;;;;10.90;6.83;;;;;;;-143.84;50.91;45012.88;5089825;28;20478;-55
2023/06/22 04:11:52;;;;;;;10.30;7.30;;;;;;;-143.84;51.73;45007.19;5089350;28;20941;-55
2023/06/22 04:14:19;;;;;;;6.80;6.00;;;;;;;-143.84;51.93;45030.03;5089353;28;20454;-54
2023/06/22 04:16:46;;;;;;;6.83;6.10;;;;;;;-143.84;51.69;45037.66;5089268;28;20904;-55
2023/06/22 04:19:16;;;;;;;8.30;6.10;;;;;;;-143.84;51.77;45026.22;5089476;28;20500;-55
2023/06/22 04:21:44;;;;;;;17.20;6.87;;;;;;;-143.84;51.36;45020.50;5089374;28;20449;-55
2023/06/22 04:24:11;;;;;;;7.20;6.60;;;;;;;-143.84;50.89;45009.09;5089135;28;20446;-54
2023/06/22 04:26:41;;;;;;;9.13;6.80;;;;;;;-143.84;50.03;44997.66;5089466;28;20851;-55
2023/06/22 04:29:08;;;;;;;9.03;6.40;;;;;;;-143.84;49.70;45007.19;5088652;28;20447;-55
2023/06/22 04:31:36;;;;;;;6.57;5.77;;;;;;;-143.84;49.81;45007.19;5089229;28;20502;-55
2023/06/22 04:34:05;;;;;;;9.13;6.47;;;;;;;-143.84;49.38;45007.19;5089118;28;20435;-55
2023/06/22 04:36:37;;;;;;;8.90;6.03;;;;;;;-143.84;49.14;44999.56;5089380;28;20455;-55
2023/06/22 04:39:06;;;;;;;6.60;5.90;;;;;;;-143.84;48.66;44993.84;5089217;28;20445;-55
2023/06/22 04:41:41;;;;;;;8.00;5.87;;;;;;;-143.84;48.32;44993.84;5089202;28;21010;-55
2023/06/22 04:44:10;;;;;;;7.77;6.57;;;;;;;-143.84;47.47;45012.88;5088768;28;20436;-55
2023/06/22 04:46:38;;;;;;;6.73;6.00;;;;;;;-143.84;47.15;45022.41;5089089;28;20551;-55
2023/06/22 04:49:09;;;;;;;9.10;6.80;;;;;;;-143.84;47.35;45003.38;5089031;28;20527;-55
2023/06/22 04:51:41;;;;;;;7.10;6.37;;;;;;;-143.84;47.03;44999.56;5089021;28;20955;-55
2023/06/22 04:54:09;;;;;;;6.80;6.10;;;;;;;-143.84;46.89;45003.38;5089096;28;20966;-55
2023/06/22 04:56:36;;;;;;;5.60;5.13;;;;;;;-143.84;45.72;44995.75;5089117;28;20441;-55
2023/06/22 04:59:04;;;;;;;8.37;5.70;;;;;;;-143.84;45.27;44986.22;5089110;28;20472;-55
2023/06/22 05:01:32;;;;;;;8.00;5.77;;;;;;;-143.84;43.53;44999.56;5088987;28;20525;-55
2023/06/22 05:04:00;;;;;;;11.00;5.07;;;;;;;-143.84;42.99;44955.75;5088707;28;20522;-55
2023/06/22 05:06:28;;;;;;;11.23;5.13;;;;;;;-143.84;42.46;44959.56;5090065;28;20449;-55
2023/06/22 05:08:58;;;;;;;6.27;5.33;;;;;;;-143.84;41.97;44948.16;5093262;28;20514;-55
2023/06/22 05:11:26;;;;;;;10.90;5.20;;;;;;;-143.84;41.67;44944.34;5093547;28;20552;-55
2023/06/22 05:13:53;;;;;;;20.50;5.10;;;;;;;-143.84;41.55;44927.19;5092867;28;20479;-55
2023/06/22 05:16:24;;;;;;;6.90;5.43;;;;;;;-143.84;40.49;44931.00;5093159;28;20456;-55
2023/06/22 05:18:53;;;;;;;10.93;5.20;;;;;;;-143.84;39.92;44910.06;5092796;28;20848;-55
2023/06/22 05:21:23;;;;;;;7.10;4.73;;;;;;;-143.84;39.14;44906.25;5092879;28;20940;-55
2023/06/22 05:23:51;;;;;;;14.03;5.47;;;;;;;-143.84;39.30;44917.69;5092722;28;20432;-55
2023/06/22 05:26:20;;;;;;;8.00;5.50;;;;;;;-143.84;38.32;44910.06;5092800;28;20440;-55
2023/06/22 05:28:47;;;;;;;7.97;5.77;;;;;;;-143.84;39.02;44898.66;5092655;28;20467;-55
2023/06/22 05:31:15;;;;;;;5.87;5.37;;;;;;;-143.84;38.01;44910.06;5092579;28;20477;-55
2023/06/22 05:33:43;;;;;;;8.50;5.20;;;;;;;-143.84;38.17;44919.59;5093008;28;20805;-55
2023/06/22 05:36:10;;;;;;;7.13;5.07;;;;;;;-143.84;37.16;44871.97;5092563;28;20819;-55
2023/06/22 05:38:37;;;;;;;6.90;4.90;;;;;;;-143.84;37.83;44881.50;5092663;28;20440;-55
2023/06/22 05:41:04;;;;;;;5.20;4.50;;;;;;;-143.84;37.48;44883.41;5092317;28;20428;-55
2023/06/22 05:43:33;;;;;;;9.00;5.23;;;;;;;-143.84;37.25;44892.94;5092088;28;20493;-55
2023/06/22 05:46:02;;;;;;;11.73;5.87;;;;;;;-143.84;36.76;44883.41;5092134;28;21261;-55
2023/06/22 05:48:29;;;;;;;5.40;4.87;;;;;;;-143.84;35.93;44862.47;5092586;28;20432;-55
2023/06/22 05:50:56;;;;;;;7.93;5.10;;;;;;;-143.84;36.83;44892.94;5092333;28;20982;-55
2023/06/22 05:53:23;;;;;;;8.70;5.17;;;;;;;-143.84;36.44;44873.88;5092355;28;20513;-55
2023/06/22 05:55:50;;;;;;;5.07;4.67;;;;;;;-143.84;35.90;44854.84;5092094;28;20444;-55
2023/06/22 05:58:17;;;;;;;9.60;4.97;;;;;;;-143.84;36.22;44858.66;5092220;28;20445;-55
2023/06/22 06:00:46;;;;;;;16.70;5.43;;;;;;;-143.84;35.68;44871.97;5092082;28;20440;-55
2023/06/22 06:03:16;;;;;;;5.70;4.83;;;;;;;-143.84;35.17;44868.19;5092193;28;20437;-55
2023/06/22 06:05:44;;;;;;;5.20;4.80;;;;;;;-143.84;35.45;44873.88;5092256;28;20452;-55
2023/06/22 06:08:12;;;;;;;6.10;4.97;;;;;;;-143.84;35.14;44843.44;5091910;28;20497;-55
2023/06/22 06:10:39;;;;;;;5.67;4.70;;;;;;;-143.84;34.97;44871.97;5091579;28;20472;-55
2023/06/22 06:13:06;;;;;;;5.40;4.53;;;;;;;-143.84;35.84;44849.13;5091757;28;20645;-55
2023/06/22 06:15:35;;;;;;;5.67;5.17;;;;;;;-143.84;35.06;44845.31;5091687;28;20466;-55
2023/06/22 06:18:05;;;;;;;8.83;4.53;;;;;;;-143.84;35.25;44868.19;5091408;28;20511;-55
2023/06/22 06:20:32;;;;;;;7.43;5.40;;;;;;;-143.84;35.08;44877.69;5091611;28;20447;-55
2023/06/22 06:22:59;;;;;;;5.27;4.87;;;;;;;-143.84;36.31;44852.94;5091722;28;20983;-55
2023/06/22 06:25:27;;;;;;;6.20;4.60;;;;;;;-143.84;35.34;44841.53;5091709;28;20437;-55
2023/06/22 06:27:56;;;;;;;5.57;5.10;;;;;;;-143.84;35.16;44832.00;5091318;28;21055;-55
2023/06/22 06:30:23;;;;;;;12.30;4.80;;;;;;;-143.84;34.63;44809.16;5091334;28;21021;-55
2023/06/22 06:32:51;;;;;;;6.03;4.73;;;;;;;-143.84;34.27;44830.09;5091644;28;20442;-55
2023/06/22 06:35:19;;;;;;;7.37;4.50;;;;;;;-143.84;34.30;44830.09;5091505;28;20926;-55
2023/06/22 06:37:49;;;;;;;5.60;4.87;;;;;;;-143.84;34.81;44803.44;5091456;28;21031;-55
2023/06/22 06:40:18;;;;;;;6.97;5.20;;;;;;;-143.84;34.74;44824.38;5091257;28;20437;-55
2023/06/22 06:42:46;;;;;;;5.63;4.60;;;;;;;-143.84;34.30;44835.81;5091455;28;21007;-55
2023/06/22 06:45:14;;;;;;;4.90;4.60;;;;;;;-143.84;34.25;44824.38;5091420;28;20489;-55
2023/06/22 06:47:41;;;;;;;7.70;4.90;;;;;;;-143.84;34.09;44841.53;5091184;28;20467;-55
2023/06/22 06:50:09;;;;;;;15.43;5.20;;;;;;;-143.84;33.85;44830.09;5091227;28;20487;-55
2023/06/22 06:52:38;;;;;;;4.43;4.13;;;;;;;-143.84;33.78;44820.56;5091537;28;20444;-55
2023/06/22 06:55:10;;;;;;;5.13;4.73;;;;;;;-143.84;34.56;44799.63;5091042;28;20502;-55
2023/06/22 06:57:38;;;;;;;11.60;5.13;;;;;;;-143.84;33.88;44786.31;5091454;28;20445;-55
2023/06/22 07:00:11;;;;;;;5.73;5.03;;;;;;;-143.84;33.87;44830.09;5090965;28;20447;-55
2023/06/22 07:02:41;;;;;;;4.53;4.23;;;;;;;-143.84;33.85;44822.47;5090820;28;20451;-55
2023/06/22 07:05:08;;;;;;;8.37;4.80;;;;;;;-143.84;33.14;44795.81;5090959;28;20436;-55
2023/06/22 07:07:35;;;;;;;5.63;4.40;;;;;;;-143.84;33.63;44818.66;5090693;28;20945;-55
2023/06/22 07:10:05;;;;;;;5.37;4.23;;;;;;;-143.84;33.48;44799.63;5083154;28;20484;-55
2023/06/22 07:12:32;;;;;;;6.13;4.07;;;;;;;-143.84;32.21;44797.72;5074502;28;20449;-55
2023/06/22 07:15:03;;;;;;;4.47;4.20;;;;;;;-143.84;32.79;44839.63;5070422;28;20474;-55
2023/06/22 07:17:30;;;;;;;5.70;4.23;;;;;;;-143.84;33.70;44820.56;5070504;28;20539;-55
2023/06/22 07:19:57;;;;;;;8.43;4.70;;;;;;;-143.84;33.80;44830.09;5070367;28;20850;-55
2023/06/22 07:22:25;;;;;;;5.87;4.30;;;;;;;-143.84;33.49;44839.63;5070445;28;20491;-55
2023/06/22 07:24:52;;;;;;;5.07;4.63;;;;;;;-143.84;32.88;44833.91;5070115;28;20967;-55
2023/06/22 07:27:21;;;;;;;3.97;3.77;;;;;;;-143.84;33.55;44832.00;5070201;28;20923;-55
2023/06/22 07:29:48;;;;;;;5.50;4.20;;;;;;;-143.84;32.72;44845.31;5069374;28;20528;-55
2023/06/22 07:32:15;;;;;;;6.30;4.47;;;;;;;-143.84;32.92;44830.09;5070422;28;20838;-55
2023/06/22 07:34:43;;;;;;;6.37;4.60;;;;;;;-143.84;33.52;44837.72;5070069;28;20479;-55
2023/06/22 07:37:10;;;;;;;6.90;4.70;;;;;;;-143.84;34.04;44828.19;5069975;28;20799;-55
2023/06/22 07:39:37;;;;;;;4.73;4.30;;;;;;;-143.84;32.92;44832.00;5069927;28;21044;-55
2023/06/22 07:42:05;;;;;;;4.63;4.20;;;;;;;-143.84;32.74;44843.44;5069776;28;20525;-55
2023/06/22 07:44:33;;;;;;;6.97;4.20;;;;;;;-143.84;32.82;44835.81;5069724;28;20445;-55
2023/06/22 07:47:00;;;;;;;4.60;4.20;;;;;;;-143.84;33.62;44828.19;5070220;28;20449;-55
2023/06/22 07:49:29;;;;;;;5.63;4.40;;;;;;;-143.84;33.26;44852.94;5069731;28;20477;-55
2023/06/22 07:51:56;;;;;;;6.10;4.43;;;;;;;-143.84;32.93;44812.97;5069499;28;21064;-55
2023/06/22 07:54:23;;;;;;;4.20;3.80;;;;;;;-143.84;33.63;44832.00;5069946;28;20429;-57
2023/06/22 07:56:50;;;;;;;4.93;4.40;;;;;;;-143.84;31.85;44807.25;5070015;28;20441;-57
2023/06/22 07:59:17;;;;;;;12.23;4.30;;;;;;;-143.84;32.69;44820.56;5070148;28;20507;-57
2023/06/22 08:01:48;;;;;;;5.90;5.30;;;;;;;-143.84;34.08;44837.72;5110676;28;20440;-57
2023/06/22 08:04:16;;;;;;;7.27;5.00;;;;;;;-143.84;34.59;44812.97;5110554;28;20451;-57
2023/06/22 08:06:43;;;;;;;6.10;5.60;;;;;;;-143.84;34.98;44832.00;5110422;28;20911;-57
2023/06/22 08:09:10;;;;;;;8.33;5.47;;;;;;;-143.84;35.54;44814.88;5110358;28;20451;-57
2023/06/22 08:11:37;;;;;;;5.30;4.80;;;;;;;-143.84;36.55;44793.91;5110501;28;20475;-57
2023/06/22 08:14:04;;;;;;;6.80;5.63;;;;;;;-143.84;35.44;44793.91;5110239;28;20524;-57
2023/06/22 08:16:31;;;;;;;6.07;5.47;;;;;;;-143.84;34.99;44811.06;5095645;27;20473;-57
2023/06/22 08:19:00;;;;;;;11.73;5.20;;;;;;;-143.84;35.39;44828.19;5084466;28;20484;-57
2023/06/22 08:21:28;;;;;;;7.93;5.10;;;;;;;-143.84;34.44;44799.63;5083710;28;20805;-57
2023/06/22 08:23:55;;;;;;;8.30;5.77;;;;;;;-143.84;34.97;44812.97;5083020;28;20445;-57
2023/06/22 08:26:23;;;;;;;5.93;5.03;;;;;;;-143.84;34.58;44803.44;5082038;28;20433;-57
2023/06/22 08:28:50;;;;;;;9.13;4.93;;;;;;;-143.84;35.05;44782.50;5083884;28;20456;-57
2023/06/22 08:31:17;;;;;;;5.50;5.10;;;;;;;-143.84;34.22;44795.81;5083697;28;21561;-57
2023/06/22 08:33:46;;;;;;;9.33;5.37;;;;;;;-143.84;33.78;44828.19;5083445;28;20476;-57
2023/06/22 08:36:14;;;;;;;6.83;5.10;;;;;;;-143.84;34.25;44807.25;5083707;28;20532;-57
2023/06/22 08:38:41;;;;;;;5.27;4.87;;;;;;;-143.84;36.22;44788.22;5083536;28;20457;-57
2023/06/22 08:41:09;;;;;;;9.67;5.43;;;;;;;-143.84;34.90;44832.00;5083685;28;21138;-57
2023/06/22 08:43:36;;;;;;;9.00;5.30;;;;;;;-143.84;35.90;44818.66;5082968;28;20455;-57
2023/06/22 08:46:03;;;;;;;13.20;5.63;;;;;;;-143.84;34.80;44797.72;5083237;28;20440;-57
2023/06/22 08:48:30;;;;;;;6.70;6.10;;;;;;;-143.84;36.02;44803.44;5083669;28;20441;-57
2023/06/22 08:50:57;;;;;;;8.10;5.00;;;;;;;-143.84;35.90;44774.88;5083195;28;20537;-57
2023/06/22 08:53:25;;;;;;;5.33;4.90;;;;;;;-143.84;35.05;44812.97;5083004;28;20464;-57
2023/06/22 08:55:53;;;;;;;5.50;5.07;;;;;;;-143.84;34.42;44835.81;5083120;28;20436;-57
2023/06/22 08:58:21;;;;;;;6.07;5.57;;;;;;;-143.84;35.10;44805.34;5084045;28;20444;-57
2023/06/22 09:00:48;;;;;;;6.10;5.50;;;;;;;-143.84;36.07;44797.72;5083400;28;21079;-57
2023/06/22 09:03:15;;;;;;;6.27;5.77;;;;;;;-143.84;36.70;44797.72;5082881;28;20550;-57
2023/06/22 09:05:42;;;;;;;7.63;6.20;;;;;;;-143.84;37.67;44835.81;5082643;28;20452;-57
2023/06/22 09:08:09;;;;;;;8.30;6.50;;;;;;;-143.84;39.08;44854.84;5083683;28;20966;-56
2023/06/22 09:10:38;;;;;;;7.67;7.07;;;;;;;-143.84;40.86;44858.66;5083099;28;21003;-57
2023/06/22 09:13:05;;;;;;;12.73;7.10;;;;;;;-143.84;41.30;44818.66;5082185;28;20510;-57
2023/06/22 09:15:32;;;;;;;8.20;7.10;;;;;;;-143.84;43.62;44866.28;5082168;28;20471;-56
2023/06/22 09:17:59;;;;;;;8.53;7.83;;;;;;;-143.84;43.95;44877.69;5082821;28;20935;-56
2023/06/22 09:20:26;;;;;;;8.70;7.80;;;;;;;-143.84;44.31;44894.84;5081685;28;20452;-57
2023/06/22 09:22:54;;;;;;;8.90;8.20;;;;;;;-143.84;47.23;44892.94;5082556;28;20436;-56
2023/06/22 09:25:21;;;;;;;13.10;8.23;;;;;;;-143.84;48.36;44910.06;5082975;28;20463;-57
2023/06/22 09:27:50;;;;;;;9.33;8.40;;;;;;;-143.84;47.83;44906.25;5083103;28;20460;-56
2023/06/22 09:30:17;;;;;;;11.77;8.00;;;;;;;-143.84;48.84;44936.72;5083342;28;20447;-56
2023/06/22 09:32:44;;;;;;;13.50;8.60;;;;;;;-143.84;47.26;44921.50;5082330;28;20529;-56
2023/06/22 09:35:13;;;;;;;10.73;7.87;;;;;;;-143.84;49.45;44919.59;5083059;28;20514;-56
2023/06/22 09:37:40;;;;;;;10.77;9.77;;;;;;;-143.84;47.77;44896.75;5082596;28;20513;-56
2023/06/22 09:40:11;;;;;;;17.57;8.60;;;;;;;-143.84;47.53;44921.50;5083286;28;20893;-56
2023/06/22 09:42:38;;;;;;;8.80;7.87;;;;;;;-143.84;47.22;44917.69;5082670;28;20530;-56
2023/06/22 09:45:08;;;;;;;8.70;8.00;;;;;;;-143.84;46.43;44898.66;5082889;28;20931;-56
2023/06/22 09:47:35;;;;;;;8.70;7.90;;;;;;;-143.84;45.83;44911.97;5082767;28;20452;-56
2023/06/22 09:50:02;;;;;;;8.60;7.90;;;;;;;-143.84;44.74;44923.41;5083321;28;20451;-56
2023/06/22 09:52:29;;;;;;;14.50;7.13;;;;;;;-143.84;46.31;44881.50;5082644;28;20482;-56
2023/06/22 09:54:56;;;;;;;8.80;7.77;;;;;;;-143.84;43.44;44911.97;5086112;28;20444;-57
2023/06/22 09:57:23;;;;;;;10.10;7.33;;;;;;;-143.84;44.55;44894.84;5086404;28;20448;-57
2023/06/22 09:59:51;;;;;;;11.27;7.83;;;;;;;-143.84;43.36;44902.44;5087356;28;20428;-56
2023/06/22 10:02:19;;;;;;;9.43;8.23;;;;;;;-143.84;44.68;44896.75;5085459;28;20494;-56
2023/06/22 10:04:46;;;;;;;10.87;7.43;;;;;;;-143.84;45.41;44885.31;5086338;28;20506;-56
2023/06/22 10:07:13;;;;;;;11.50;8.20;;;;;;;-143.84;44.20;44889.13;5086238;28;20440;-56
2023/06/22 10:09:40;;;;;;;8.00;7.40;;;;;;;-143.84;45.82;44906.25;5084984;28;20460;-56
2023/06/22 10:12:08;;;;;;;12.20;8.30;;;;;;;-143.84;44.64;44919.59;5085360;28;20494;-56
2023/06/22 10:14:35;;;;;;;11.07;8.47;;;;;;;-143.84;46.78;44929.09;5086359;28;20834;-56
2023/06/22 10:17:04;;;;;;;8.73;8.00;;;;;;;-143.84;42.07;44919.59;5085727;28;20460;-56
2023/06/22 10:19:32;;;;;;;12.90;7.50;;;;;;;-143.84;42.36;44910.06;5086583;28;20444;-56
2023/06/22 10:21:59;;;;;;;8.63;7.73;;;;;;;-143.84;43.09;44910.06;5084983;28;20441;-55
2023/06/22 10:24:27;;;;;;;8.23;7.40;;;;;;;-143.84;43.82;44921.50;5085326;28;20448;-55
2023/06/22 10:26:54;;;;;;;8.57;7.80;;;;;;;-143.84;43.86;44911.97;5083822;28;20433;-55
2023/06/22 10:29:21;;;;;;;8.73;8.00;;;;;;;-143.84;44.41;44896.75;5085411;28;20444;-55
2023/06/22 10:31:48;;;;;;;8.43;7.40;;;;;;;-143.84;44.10;44885.31;5084663;28;20790;-55
2023/06/22 10:34:16;;;;;;;10.00;8.33;;;;;;;-143.84;44.13;44917.69;5085328;28;20449;-55
2023/06/22 10:36:47;;;;;;;11.30;8.90;;;;;;;-143.84;45.64;44902.44;5084965;28;20448;-55
2023/06/22 10:39:15;;;;;;;10.83;7.93;;;;;;;-143.84;47.06;44923.41;5084959;28;20448;-55
2023/06/22 10:41:42;;;;;;;9.67;8.60;;;;;;;-143.84;49.06;44902.44;5084332;28;21297;-55
2023/06/22 10:44:09;;;;;;;9.57;7.90;;;;;;;-143.84;46.95;44927.19;5084911;28;20460;-55
2023/06/22 10:46:36;;;;;;;9.13;8.23;;;;;;;-143.84;45.73;44950.06;5084911;28;20440;-55
2023/06/22 10:49:03;;;;;;;10.77;8.67;;;;;;;-143.84;47.95;44906.25;5084873;28;20448;-55
2023/06/22 10:51:31;;;;;;;13.00;8.63;;;;;;;-143.84;48.81;44923.41;5083918;28;20861;-55
2023/06/22 10:53:59;;;;;;;14.90;9.13;;;;;;;-143.84;50.58;44910.06;5084374;28;20452;-55
2023/06/22 10:56:26;;;;;;;14.60;8.60;;;;;;;-143.84;48.33;44910.06;5083171;28;20951;-55
2023/06/22 10:58:54;;;;;;;13.17;8.50;;;;;;;-143.84;51.30;44942.44;5084944;28;20445;-55
2023/06/22 11:01:22;;;;;;;13.33;8.47;;;;;;;-143.84;52.50;44925.31;5084461;28;20456;-55
2023/06/22 11:03:49;;;;;;;15.13;9.03;;;;;;;-143.84;52.84;44932.91;5083320;28;20444;-55
2023/06/22 11:06:16;;;;;;;14.37;8.27;;;;;;;-143.84;53.40;44951.97;5084651;28;20456;-55
2023/06/22 11:08:45;;;;;;;17.30;8.70;;;;;;;-143.84;53.08;44929.09;5085054;28;20457;-55
2023/06/22 11:11:14;;;;;;;14.60;8.30;;;;;;;-143.84;49.79;44917.69;5084466;28;20458;-55
2023/06/22 11:13:41;;;;;;;12.70;8.27;;;;;;;-143.84;50.83;44948.16;5084100;28;21162;-55
2023/06/22 11:16:08;;;;;;;9.33;8.40;;;;;;;-143.84;49.74;44934.81;5084089;28;20456;-55
2023/06/22 11:18:35;;;;;;;8.70;7.90;;;;;;;-143.84;49.67;44921.50;5084020;28;20548;-55